Ebeye, MH

4:41 PM MHT on August 29, 2016 (GMT +1200)
Sand Island, Henderson Field | | Change Station

Elev 13 ft 28.22 °N, 177.37 °W | Updated 45 minutes ago

Scattered Clouds
Scattered Clouds
80 °F
Feels Like 84 °F
N
8
Wind Variable Wind from North

Today
High -- | Low -- °F
--% Chance of Precip.
Yesterday
High -- | Low -- °F
Precip. -- in
Pressure 29.93 in
Visibility 10.0 miles
Clouds Few 1900 ft
Scattered Clouds 3800 ft
Heat Index 84 °F
Dew Point 74 °F
Humidity 81%
Rainfall 0.00 in
Snow Depth Not available.
6:28 AM 6:44 PM
Waning Crescent, 11% visible
METAR PMDY 290356Z AUTO 35007KT 10SM FEW019 SCT038 27/23 A2993 RMK AO2 SLP134 T02670233
Pressure 29.93 in
Visibility 10.0 miles
Clouds Few 1900 ft
Scattered Clouds 3800 ft
Heat Index 84 °F
Dew Point 74 °F
Humidity 81%
Rainfall 0.00 in
Snow Depth Not available.
6:28 AM 6:44 PM
Waning Crescent, 11% visible
METAR PMDY 290356Z AUTO 35007KT 10SM FEW019 SCT038 27/23 A2993 RMK AO2 SLP134 T02670233

10-Day Weather Forecast

No radar image for this location.
×

Almanac

Astronomy

Aug. 29, 2016 Rise Set
Actual Time
Civil Twilight
Nautical Twilight
Astronomical Twilight
Moon
Length of Visible Light
Length of Day
Tomorrow will be .
, % of the Moon is Illuminated

Today's Extremes

State Highs State Lows

Community

WunderPhotos

Upload Photos

1,935,799 photos uploaded!

WunderBlog® & News

Nearby

Air Quality

  Air Quality AQ Index Pollutant
Not available.

Snow Depth

Station Depth Elevation

Earthquake Activity

City Distance Mag. Time & Date
Minimum magnitude displayed is 2.5.

Coastal Water Temperatures

Place Temperature

Stations

Nearby Weather Stations

Station Location Temp. Windchill Dew Point Humidity Wind Precip. Elev Updated Type
                   

Watches & Warnings

There are currently no watches in effect.